KMIW/MIW METAR and TAF weather

Enter ICAO airport designator
Station Type Date Time Source
KMIW METAR 2022/10/01 08:53 UTC NOAA

KMIW 010853Z AUTO 10004KT 10SM CLR 09/06 A3017 RMK AO2 SLP216 T00940061 52006


Station Type Date Time Source
KMIW Decoded METAR 2022/10/01 08:53 UTC NOAA

MARSHALLTOWN MUNICIPAL AIRPORT , IA, United States (KMIW) 42-07N 92-55W 296M
Oct 01, 2022 - 04:53 AM EDT / 2022.10.01 0853 UTC
Wind: from the E (100 degrees) at 5 MPH (4 KT):0
Visibility: 10 mile(s):0
Sky conditions: clear
Temperature: 48.9 F (9.4 C)
Dew Point: 43.0 F (6.1 C)
Relative Humidity: 79%
Pressure (altimeter): 30.17 in. Hg (1021 hPa)
Pressure tendency: 0.02 inches (0.6 hPa) higher than three hours ago
ob: KMIW 010853Z AUTO 10004KT 10SM CLR 09/06 A3017 RMK AO2 SLP216 T00940061 52006
cycle: 9

Station Type Date Time Source
KMIW TAF UTC NOAA

Error!

Example: see airport list